createdAt,value
2023-01-25T00:00:01.195Z,1.21
2023-01-25T00:02:33.283Z,0.94
2023-01-25T00:05:05.721Z,1.49
2023-01-25T00:07:37.870Z,1.47
2023-01-25T00:10:10.519Z,1.36
2023-01-25T00:12:42.496Z,1.31
2023-01-25T00:15:14.594Z,1.48
2023-01-25T00:17:46.532Z,1.32
2023-01-25T00:20:18.700Z,1.18
2023-01-25T00:22:50.685Z,1.28
2023-01-25T00:25:22.583Z,1.11
2023-01-25T00:27:54.468Z,1.12
2023-01-25T00:30:26.421Z,1.17
2023-01-25T00:33:06.846Z,1.08
2023-01-25T00:35:39.235Z,0.92
2023-01-25T00:38:43.738Z,1.01
2023-01-25T00:41:15.735Z,1.10
2023-01-25T00:43:47.667Z,0.89
2023-01-25T00:46:20.018Z,0.79
2023-01-25T00:48:55.539Z,1.09
2023-01-25T00:51:27.728Z,1.06
2023-01-25T00:53:59.687Z,1.05
2023-01-25T00:56:31.660Z,0.89
2023-01-25T00:59:03.700Z,0.92
2023-01-25T01:01:35.905Z,0.86
2023-01-25T01:04:08.143Z,0.92
2023-01-25T01:06:40.917Z,0.75
2023-01-25T01:09:15.964Z,0.58
2023-01-25T01:11:48.433Z,0.90
2023-01-25T01:14:21.826Z,0.79
2023-01-25T01:16:53.732Z,0.89
2023-01-25T01:19:25.748Z,0.79
2023-01-25T01:21:57.723Z,0.92
2023-01-25T01:24:29.840Z,0.85
2023-01-25T01:27:01.931Z,1.04
2023-01-25T01:29:34.100Z,0.66
2023-01-25T01:32:06.436Z,0.94
2023-01-25T01:34:38.455Z,0.73
2023-01-25T01:37:10.616Z,0.79
2023-01-25T01:39:42.581Z,0.65
2023-01-25T01:42:14.575Z,0.51
2023-01-25T01:44:54.488Z,0.83
2023-01-25T01:47:31.476Z,0.94
2023-01-25T01:50:06.903Z,0.51
2023-01-25T01:52:39.162Z,0.76
2023-01-25T01:55:18.864Z,0.70
2023-01-25T01:57:56.084Z,0.82
2023-01-25T02:00:33.034Z,0.70
2023-01-25T02:03:05.036Z,0.55
2023-01-25T02:06:04.934Z,0.52
2023-01-25T02:08:41.145Z,0.62
2023-01-25T02:11:13.567Z,0.60
2023-01-25T02:13:45.632Z,0.40
2023-01-25T02:16:21.510Z,0.55
2023-01-25T02:18:56.444Z,0.58
2023-01-25T02:21:37.096Z,0.51
2023-01-25T02:24:18.770Z,0.59
2023-01-25T02:26:50.815Z,0.28
2023-01-25T02:29:24.518Z,0.40
2023-01-25T02:32:14.725Z,-0.10
2023-01-25T02:34:46.730Z,0.10
2023-01-25T02:37:18.712Z,0.37
2023-01-25T02:39:51.653Z,0.37
2023-01-25T02:42:23.738Z,-0.12
2023-01-25T02:44:55.775Z,0.36
2023-01-25T02:47:27.708Z,0.29
2023-01-25T02:49:59.790Z,0.18
2023-01-25T02:52:31.846Z,0.21
2023-01-25T02:55:04.037Z,0.15
2023-01-25T02:57:35.980Z,0.13
2023-01-25T03:00:08.883Z,-0.10
2023-01-25T03:02:40.854Z,0.06
2023-01-25T03:05:12.985Z,0.09
2023-01-25T03:07:45.127Z,0.19
2023-01-25T03:10:17.246Z,-0.01
2023-01-25T03:12:49.184Z,-0.07
2023-01-25T03:15:21.120Z,0.00
2023-01-25T03:17:53.036Z,0.13
2023-01-25T03:20:25.177Z,-0.01
2023-01-25T03:22:57.130Z,-0.05
2023-01-25T03:25:29.197Z,-0.08
2023-01-25T03:28:01.141Z,-0.09
2023-01-25T03:30:33.134Z,0.10
2023-01-25T03:33:05.173Z,-0.20
2023-01-25T03:35:37.131Z,-0.03
2023-01-25T03:38:09.037Z,-0.17
2023-01-25T03:40:40.972Z,-0.04
2023-01-25T03:43:13.284Z,-0.18
2023-01-25T03:45:45.390Z,-0.09
2023-01-25T03:48:17.445Z,0.08
2023-01-25T03:50:54.156Z,0.24
2023-01-25T03:53:30.650Z,0.13
2023-01-25T03:56:12.004Z,0.16
2023-01-25T03:58:43.906Z,-0.14
2023-01-25T04:01:15.914Z,-0.12
2023-01-25T04:03:47.919Z,0.09
2023-01-25T04:06:19.859Z,-0.23
2023-01-25T04:08:52.335Z,0.03
2023-01-25T04:11:24.325Z,0.03
2023-01-25T04:13:56.249Z,0.05
2023-01-25T04:16:30.762Z,0.01
2023-01-25T04:19:02.869Z,-0.47
2023-01-25T04:21:34.796Z,-0.28
2023-01-25T04:24:07.051Z,-0.59
2023-01-25T04:26:39.177Z,-0.19
2023-01-25T04:29:11.176Z,-0.25
2023-01-25T04:31:43.268Z,-0.27
2023-01-25T04:34:15.277Z,-0.24
2023-01-25T04:36:47.389Z,-0.01
2023-01-25T04:39:19.695Z,-0.02
2023-01-25T04:41:51.621Z,-0.02
2023-01-25T04:44:23.609Z,-0.03
2023-01-25T04:46:55.543Z,-0.10
2023-01-25T04:49:27.458Z,-0.36
2023-01-25T04:51:59.328Z,-0.08
2023-01-25T04:54:31.342Z,-0.04
2023-01-25T04:57:04.063Z,-0.48
2023-01-25T04:59:36.024Z,-0.18
2023-01-25T05:02:07.938Z,-0.37
2023-01-25T05:04:39.917Z,-0.25
2023-01-25T05:07:12.042Z,-0.21
2023-01-25T05:09:43.993Z,-0.37
2023-01-25T05:12:15.968Z,-0.28
2023-01-25T05:14:47.935Z,-0.14
2023-01-25T05:17:20.103Z,-0.34
2023-01-25T05:19:52.116Z,-0.20
2023-01-25T05:22:24.365Z,-0.20
2023-01-25T05:24:56.414Z,-0.43
2023-01-25T05:27:28.384Z,-0.24
2023-01-25T05:30:00.370Z,-0.28
2023-01-25T05:32:32.650Z,-0.39
2023-01-25T05:35:04.885Z,-0.35
2023-01-25T05:37:36.840Z,-0.28
2023-01-25T05:40:09.666Z,-0.19
2023-01-25T05:42:42.178Z,-0.40
2023-01-25T05:45:14.096Z,-0.59
2023-01-25T05:47:46.091Z,-0.48
2023-01-25T05:50:18.251Z,-0.35
2023-01-25T05:52:50.370Z,-0.77
2023-01-25T05:55:22.352Z,-0.25
2023-01-25T05:57:57.427Z,-0.72
2023-01-25T06:00:29.427Z,-0.69
2023-01-25T06:03:02.646Z,-0.50
2023-01-25T06:05:34.662Z,-0.88
2023-01-25T06:08:06.621Z,-0.58
2023-01-25T06:10:38.632Z,-0.53
2023-01-25T06:13:10.539Z,-0.74
2023-01-25T06:15:42.645Z,-0.89
2023-01-25T06:18:14.671Z,-0.97
2023-01-25T06:20:46.810Z,-0.87
2023-01-25T06:23:19.134Z,-0.76
2023-01-25T06:25:51.423Z,-0.53
2023-01-25T06:28:23.323Z,-0.86
2023-01-25T06:30:55.412Z,-0.78
2023-01-25T06:33:27.354Z,-0.56
2023-01-25T06:36:05.599Z,-0.86
2023-01-25T06:38:37.645Z,-1.00
2023-01-25T06:41:12.282Z,-0.57
2023-01-25T06:43:44.349Z,-0.48
2023-01-25T06:46:16.395Z,-0.72
2023-01-25T06:48:48.390Z,-0.62
2023-01-25T06:51:20.441Z,-0.49
2023-01-25T06:53:52.443Z,-0.62
2023-01-25T06:56:26.171Z,-0.48
2023-01-25T06:58:58.131Z,-0.33
2023-01-25T07:01:30.765Z,-0.49
2023-01-25T07:04:02.852Z,-0.25
2023-01-25T07:06:35.552Z,-0.37
2023-01-25T07:09:13.216Z,-0.60
2023-01-25T07:11:45.422Z,-0.49
2023-01-25T07:14:17.658Z,-0.48
2023-01-25T07:16:49.611Z,-0.55
2023-01-25T07:19:21.660Z,-0.75
2023-01-25T07:21:54.107Z,-0.47
2023-01-25T07:24:27.602Z,-0.75
2023-01-25T07:26:59.755Z,-0.78
2023-01-25T07:29:31.697Z,-0.50
2023-01-25T07:32:03.842Z,-0.52
2023-01-25T07:34:36.209Z,-0.74
2023-01-25T07:37:09.592Z,-0.67
2023-01-25T07:39:48.417Z,-0.55
2023-01-25T07:42:20.272Z,-0.83
2023-01-25T07:44:52.337Z,-0.72
2023-01-25T07:47:24.444Z,-0.78
2023-01-25T07:49:56.407Z,-0.57
2023-01-25T07:52:28.338Z,-0.89
2023-01-25T07:55:00.302Z,-0.74
2023-01-25T07:57:32.228Z,-0.77
2023-01-25T08:00:04.702Z,-0.63
2023-01-25T08:02:36.960Z,-0.48
2023-01-25T08:05:09.855Z,-0.43
2023-01-25T08:07:41.987Z,-0.51
2023-01-25T08:10:14.416Z,-0.28
2023-01-25T08:12:46.981Z,-0.61
2023-01-25T08:15:18.946Z,-0.69
2023-01-25T08:17:50.841Z,-0.46
2023-01-25T08:20:22.952Z,-0.72
2023-01-25T08:22:54.872Z,-0.92
2023-01-25T08:25:27.465Z,-0.81
2023-01-25T08:27:59.380Z,-0.94
2023-01-25T08:30:31.842Z,-0.74
2023-01-25T08:33:04.051Z,-0.74
2023-01-25T08:35:37.130Z,-0.61
2023-01-25T08:38:09.093Z,-0.67
2023-01-25T08:40:41.088Z,-0.77
2023-01-25T08:43:15.134Z,-0.68
2023-01-25T08:45:56.088Z,-0.55
2023-01-25T08:48:28.303Z,-0.50
2023-01-25T08:51:01.126Z,-0.89
2023-01-25T08:53:33.470Z,-0.53
2023-01-25T08:56:10.436Z,-0.78
2023-01-25T08:58:47.527Z,-0.47
2023-01-25T09:01:20.676Z,-1.20
2023-01-25T09:03:54.402Z,-0.94
2023-01-25T09:06:26.405Z,-0.58
2023-01-25T09:09:00.541Z,-0.50
2023-01-25T09:11:35.021Z,-0.62
2023-01-25T09:14:07.263Z,-0.62
2023-01-25T09:16:39.208Z,-0.95
2023-01-25T09:19:11.561Z,-0.71
2023-01-25T09:21:43.581Z,-0.74
2023-01-25T09:24:15.802Z,-0.61
2023-01-25T09:26:56.013Z,-0.71
2023-01-25T09:29:31.304Z,-0.76
2023-01-25T09:32:03.745Z,-0.36
2023-01-25T09:34:36.875Z,-0.48
2023-01-25T09:37:08.811Z,-0.29
2023-01-25T09:39:40.767Z,-0.58
2023-01-25T09:42:20.576Z,-0.19
2023-01-25T09:45:04.693Z,-0.09
2023-01-25T09:47:48.894Z,0.00
2023-01-25T09:50:37.384Z,-0.20
2023-01-25T09:53:33.616Z,-0.14
2023-01-25T09:56:26.484Z,-0.02
2023-01-25T09:59:03.666Z,-0.01
2023-01-25T10:01:47.324Z,-0.25
2023-01-25T10:04:23.382Z,-0.59
2023-01-25T10:07:12.797Z,-0.43
2023-01-25T10:09:53.756Z,-0.29
2023-01-25T10:12:28.984Z,-0.21
2023-01-25T10:15:00.958Z,-0.62
2023-01-25T10:17:39.224Z,-0.32
2023-01-25T10:21:00.027Z,-0.23
2023-01-25T10:24:01.186Z,-0.42
2023-01-25T10:26:38.891Z,-0.30
2023-01-25T10:29:19.951Z,-0.25
2023-01-25T10:31:54.545Z,0.07
2023-01-25T10:34:30.117Z,0.07
2023-01-25T10:37:10.832Z,-0.09
2023-01-25T10:39:58.619Z,0.03
2023-01-25T10:42:49.275Z,-0.36
2023-01-25T10:45:21.368Z,-0.22
2023-01-25T10:48:03.704Z,-0.32
2023-01-25T10:50:50.008Z,0.01
2023-01-25T10:53:25.427Z,-0.13
2023-01-25T10:56:11.573Z,-0.16
2023-01-25T10:58:47.072Z,-0.31
2023-01-25T11:01:28.966Z,-0.30
2023-01-25T11:04:02.299Z,-0.13
2023-01-25T11:06:46.759Z,-0.15
2023-01-25T11:09:21.861Z,-0.14
2023-01-25T11:12:03.090Z,-0.21
2023-01-25T11:14:35.331Z,-0.17
2023-01-25T11:17:31.939Z,-0.10
2023-01-25T11:20:18.133Z,0.00
2023-01-25T11:22:55.762Z,0.14
2023-01-25T11:25:29.192Z,0.21
2023-01-25T11:28:19.843Z,-0.09
2023-01-25T11:30:53.190Z,-0.14
2023-01-25T11:33:27.377Z,0.02
2023-01-25T11:36:14.246Z,0.04
2023-01-25T11:39:24.549Z,-0.20
2023-01-25T11:42:29.835Z,-0.20
2023-01-25T11:45:29.578Z,-0.19
2023-01-25T11:48:43.824Z,-0.33
2023-01-25T11:51:39.511Z,-0.29
2023-01-25T11:54:36.319Z,-0.15
2023-01-25T11:57:26.695Z,-0.34
2023-01-25T12:00:10.935Z,-0.35
2023-01-25T12:02:47.109Z,-0.20
2023-01-25T12:05:37.602Z,-0.06
2023-01-25T12:08:15.652Z,-0.14
2023-01-25T12:11:14.364Z,-0.08
2023-01-25T12:14:03.488Z,-0.14
2023-01-25T12:16:45.135Z,-0.03
2023-01-25T12:19:39.619Z,-0.50
2023-01-25T12:22:50.187Z,-0.03
2023-01-25T12:25:29.867Z,-0.06
2023-01-25T12:28:21.179Z,-0.09
2023-01-25T12:30:59.619Z,-0.54
2023-01-25T12:33:47.711Z,-0.36
2023-01-25T12:36:30.945Z,-0.25
2023-01-25T12:39:16.789Z,-0.50
2023-01-25T12:41:58.500Z,-0.25
2023-01-25T12:44:45.315Z,-0.37
2023-01-25T12:47:29.150Z,-0.17
2023-01-25T12:50:26.547Z,-0.10
2023-01-25T12:53:14.002Z,-0.30
2023-01-25T12:55:48.000Z,-0.31
2023-01-25T12:58:36.944Z,-0.24
2023-01-25T13:01:23.279Z,0.01
2023-01-25T13:04:01.313Z,-0.03
2023-01-25T13:06:49.059Z,-0.34
2023-01-25T13:09:30.304Z,0.13
2023-01-25T13:12:05.841Z,-0.06
2023-01-25T13:14:41.758Z,-0.11
2023-01-25T13:17:34.181Z,-0.29
2023-01-25T13:20:39.768Z,-0.18
2023-01-25T13:23:32.827Z,-0.23
2023-01-25T13:26:26.318Z,-0.04
2023-01-25T13:29:02.089Z,-0.17
2023-01-25T13:31:51.527Z,0.04
2023-01-25T13:34:36.545Z,-0.03
2023-01-25T13:37:32.141Z,0.03
2023-01-25T13:40:34.287Z,0.12
2023-01-25T13:43:18.848Z,-0.15
2023-01-25T13:45:52.551Z,0.01
2023-01-25T13:48:28.139Z,-0.12
2023-01-25T13:51:12.925Z,0.10
2023-01-25T13:53:55.651Z,0.15
2023-01-25T13:56:35.535Z,0.10
2023-01-25T13:59:07.779Z,0.09
2023-01-25T14:01:40.561Z,-0.21
2023-01-25T14:04:12.888Z,-0.02
2023-01-25T14:06:45.642Z,0.06
2023-01-25T14:09:23.025Z,0.19
2023-01-25T14:12:01.858Z,-0.01
2023-01-25T14:14:35.774Z,-0.19
2023-01-25T14:17:22.477Z,-0.01
2023-01-25T14:19:55.399Z,-0.22
2023-01-25T14:22:30.233Z,-0.29
2023-01-25T14:25:15.762Z,-0.27
2023-01-25T14:27:50.606Z,-0.07
2023-01-25T14:30:26.376Z,-0.09
2023-01-25T14:33:01.146Z,-0.01
2023-01-25T14:35:56.284Z,0.06
2023-01-25T14:38:38.572Z,-0.44
2023-01-25T14:41:25.836Z,0.04
2023-01-25T14:44:02.530Z,-0.03
2023-01-25T14:46:36.713Z,-0.13
2023-01-25T14:49:15.314Z,-0.09
2023-01-25T14:52:10.293Z,-0.23
2023-01-25T14:55:00.866Z,-0.25
2023-01-25T14:57:37.090Z,-0.16
2023-01-25T15:00:22.990Z,-0.22
2023-01-25T15:02:57.969Z,-0.17
2023-01-25T15:05:33.465Z,-0.14
2023-01-25T15:08:08.625Z,-0.09
2023-01-25T15:10:52.648Z,-0.03
2023-01-25T15:13:28.642Z,-0.15
2023-01-25T15:16:02.881Z,-0.07
2023-01-25T15:18:43.881Z,0.05
2023-01-25T15:21:24.429Z,-0.23
2023-01-25T15:24:05.165Z,-0.15
2023-01-25T15:26:37.151Z,-0.19
2023-01-25T15:29:20.501Z,-0.14
2023-01-25T15:31:52.890Z,-0.42
2023-01-25T15:34:32.819Z,-0.36
2023-01-25T15:37:04.713Z,-0.31
2023-01-25T15:39:36.742Z,-0.57
2023-01-25T15:42:09.472Z,-0.44
2023-01-25T15:44:41.541Z,-0.32
2023-01-25T15:47:13.527Z,-0.07
2023-01-25T15:49:45.473Z,-0.12
2023-01-25T15:52:17.548Z,-0.16
2023-01-25T15:55:00.037Z,-0.24
2023-01-25T15:57:36.849Z,-0.02
2023-01-25T16:00:20.395Z,-0.09
2023-01-25T16:02:52.560Z,-0.03
2023-01-25T16:05:24.556Z,-0.07
2023-01-25T16:07:56.523Z,0.01
2023-01-25T16:10:28.615Z,0.09
2023-01-25T16:13:00.732Z,-0.15
2023-01-25T16:15:32.681Z,-0.02
2023-01-25T16:18:05.136Z,0.01
2023-01-25T16:20:37.098Z,-0.14
2023-01-25T16:23:09.075Z,-0.14
2023-01-25T16:25:42.999Z,-0.15
2023-01-25T16:28:18.246Z,-0.03
2023-01-25T16:30:50.310Z,-0.10
2023-01-25T16:33:25.209Z,-0.02
2023-01-25T16:36:18.308Z,-0.06
2023-01-25T16:38:50.900Z,-0.12
2023-01-25T16:41:22.978Z,-0.15
2023-01-25T16:43:54.952Z,-0.24
2023-01-25T16:46:27.295Z,-0.07
2023-01-25T16:49:05.370Z,-0.18
2023-01-25T16:51:38.316Z,-0.04
2023-01-25T16:54:12.237Z,0.02
2023-01-25T16:56:44.459Z,-0.05
2023-01-25T16:59:17.442Z,-0.09
2023-01-25T17:01:49.646Z,-0.13
2023-01-25T17:04:21.667Z,-0.24
2023-01-25T17:06:53.643Z,-0.09
2023-01-25T17:09:25.773Z,-0.03
2023-01-25T17:11:57.809Z,-0.20
2023-01-25T17:14:29.729Z,-0.31
2023-01-25T17:17:01.947Z,-0.05
2023-01-25T17:19:33.893Z,-0.31
2023-01-25T17:22:05.877Z,-0.13
2023-01-25T17:24:38.058Z,-0.12
2023-01-25T17:27:10.111Z,-0.26
2023-01-25T17:29:42.102Z,-0.15
2023-01-25T17:32:14.036Z,-0.12
2023-01-25T17:34:46.133Z,-0.27
2023-01-25T17:37:18.098Z,-0.24
2023-01-25T17:39:50.153Z,-0.21
2023-01-25T17:42:22.463Z,-0.31
2023-01-25T17:44:54.407Z,-0.47
2023-01-25T17:47:26.357Z,-0.38
2023-01-25T17:49:58.212Z,-0.43
2023-01-25T17:52:30.183Z,-0.32
2023-01-25T17:55:02.244Z,-0.22
2023-01-25T17:57:35.787Z,-0.08
2023-01-25T18:00:12.170Z,-0.22
2023-01-25T18:02:47.577Z,-0.10
2023-01-25T18:05:20.240Z,0.06
2023-01-25T18:07:52.165Z,0.00
2023-01-25T18:10:24.091Z,-0.34
2023-01-25T18:13:04.562Z,-0.41
2023-01-25T18:15:37.124Z,-0.04
2023-01-25T18:18:09.908Z,-0.12
2023-01-25T18:20:41.955Z,0.01
2023-01-25T18:23:13.882Z,0.05
2023-01-25T18:25:46.488Z,0.05
2023-01-25T18:28:18.531Z,-0.07
2023-01-25T18:30:59.456Z,0.02
2023-01-25T18:33:33.494Z,-0.13
2023-01-25T18:36:05.936Z,0.05
2023-01-25T18:38:37.909Z,0.08
2023-01-25T18:41:10.063Z,0.07
2023-01-25T18:43:42.024Z,-0.29
2023-01-25T18:46:14.221Z,0.04
2023-01-25T18:48:47.448Z,-0.01
2023-01-25T18:51:19.850Z,0.05
2023-01-25T18:56:47.342Z,0.05
2023-01-25T18:59:19.205Z,-0.07
2023-01-25T19:01:51.236Z,0.08
2023-01-25T19:04:23.191Z,-0.06
2023-01-25T19:06:59.298Z,0.10
2023-01-25T19:09:31.893Z,0.13
2023-01-25T19:12:04.368Z,0.04
2023-01-25T19:14:36.356Z,0.06
2023-01-25T19:17:08.759Z,0.06
2023-01-25T19:19:41.289Z,0.08
2023-01-25T19:22:13.270Z,-0.04
2023-01-25T19:24:45.220Z,0.11
2023-01-25T19:27:17.239Z,0.07
2023-01-25T19:29:50.027Z,0.21
2023-01-25T19:32:21.974Z,-0.18
2023-01-25T19:34:53.934Z,0.04
2023-01-25T19:37:25.895Z,-0.08
2023-01-25T19:39:57.838Z,-0.01
2023-01-25T19:42:29.759Z,-0.03
2023-01-25T19:45:03.318Z,0.09
2023-01-25T19:47:35.263Z,-0.22
2023-01-25T19:50:07.872Z,0.14
2023-01-25T19:52:39.795Z,0.11
2023-01-25T19:55:12.062Z,0.02
2023-01-25T19:57:46.327Z,0.09
2023-01-25T20:00:20.033Z,0.09
2023-01-25T20:02:52.143Z,0.14
2023-01-25T20:05:24.258Z,0.14
2023-01-25T20:07:56.280Z,0.03
2023-01-25T20:10:28.224Z,-0.01
2023-01-25T20:13:00.279Z,0.02
2023-01-25T20:15:32.923Z,-0.02
2023-01-25T20:18:04.987Z,-0.13
2023-01-25T20:20:36.920Z,-0.43
2023-01-25T20:23:08.884Z,0.09
2023-01-25T20:25:41.213Z,-0.23
2023-01-25T20:28:13.199Z,0.14
2023-01-25T20:30:45.162Z,0.11
2023-01-25T20:33:18.603Z,-0.02
2023-01-25T20:35:50.585Z,0.06
2023-01-25T20:38:22.518Z,0.03
2023-01-25T20:40:59.169Z,-0.17
2023-01-25T20:43:31.746Z,0.21
2023-01-25T20:46:03.915Z,0.10
2023-01-25T20:48:37.228Z,-0.14
2023-01-25T20:51:13.358Z,-0.03
2023-01-25T20:53:46.401Z,0.08
2023-01-25T20:56:20.053Z,0.12
2023-01-25T20:58:53.061Z,0.10
2023-01-25T21:01:29.846Z,0.16
2023-01-25T21:04:01.826Z,0.06
2023-01-25T21:06:35.604Z,0.08
2023-01-25T21:09:07.618Z,0.09
2023-01-25T21:11:39.753Z,0.12
2023-01-25T21:14:11.726Z,-0.08
2023-01-25T21:16:43.588Z,0.02
2023-01-25T21:19:15.494Z,-0.06
2023-01-25T21:21:47.365Z,0.07
2023-01-25T21:24:19.396Z,0.01
2023-01-25T21:26:51.385Z,0.13
2023-01-25T21:29:23.362Z,0.08
2023-01-25T21:31:56.117Z,0.06
2023-01-25T21:34:28.100Z,0.03
2023-01-25T21:37:00.289Z,0.18
2023-01-25T21:39:32.265Z,0.05
2023-01-25T21:42:04.422Z,0.20
2023-01-25T21:44:54.800Z,-0.20
2023-01-25T21:47:31.134Z,-0.14
2023-01-25T21:50:21.847Z,0.02
2023-01-25T21:52:55.817Z,0.11
2023-01-25T21:55:27.783Z,0.02
2023-01-25T21:57:59.650Z,-0.02
2023-01-25T22:00:31.611Z,0.04
2023-01-25T22:03:04.163Z,0.13
2023-01-25T22:05:36.096Z,0.16
2023-01-25T22:08:08.007Z,0.13
2023-01-25T22:10:40.486Z,-0.17
2023-01-25T22:13:13.209Z,0.19
2023-01-25T22:15:45.270Z,0.26
2023-01-25T22:18:17.222Z,0.18
2023-01-25T22:20:49.153Z,-0.06
2023-01-25T22:23:21.100Z,0.11
2023-01-25T22:26:08.284Z,0.24
2023-01-25T22:28:50.956Z,0.16
2023-01-25T22:31:28.988Z,0.22
2023-01-25T22:34:01.073Z,0.10
2023-01-25T22:36:33.115Z,0.17
2023-01-25T22:39:06.041Z,0.10
2023-01-25T22:41:38.366Z,0.30
2023-01-25T22:44:10.598Z,0.21
2023-01-25T22:46:42.568Z,0.02
2023-01-25T22:49:14.579Z,0.26
2023-01-25T22:51:46.565Z,0.28
2023-01-25T22:54:18.571Z,0.23
2023-01-25T22:56:50.473Z,0.28
2023-01-25T22:59:22.461Z,0.30
2023-01-25T23:01:54.494Z,0.26
2023-01-25T23:04:26.748Z,0.21
2023-01-25T23:07:03.072Z,0.19
2023-01-25T23:09:35.037Z,0.19
2023-01-25T23:12:07.729Z,0.30
2023-01-25T23:14:51.693Z,0.27
2023-01-25T23:17:42.882Z,0.30
2023-01-25T23:20:14.943Z,0.12
2023-01-25T23:22:47.006Z,0.22
2023-01-25T23:25:19.097Z,0.19
2023-01-25T23:27:51.322Z,0.25
2023-01-25T23:30:23.513Z,0.22
2023-01-25T23:32:55.434Z,0.23
2023-01-25T23:35:27.766Z,-0.03
2023-01-25T23:37:59.794Z,0.28
2023-01-25T23:40:31.697Z,0.06
2023-01-25T23:43:03.647Z,0.34
2023-01-25T23:45:35.591Z,0.22
2023-01-25T23:48:07.619Z,0.23
2023-01-25T23:50:39.580Z,0.34
2023-01-25T23:53:11.599Z,0.19
2023-01-25T23:56:01.375Z,0.13
2023-01-25T23:58:35.664Z,0.34
